sensor_id;sensor_type;location;lat;lon;timestamp;pressure;altitude;pressure_sealevel;temperature;humidity
83563;BME280;73535;52.500;13.482;2024-03-17T00:01:15;101773.00;;;6.15;64.44
83563;BME280;73535;52.500;13.482;2024-03-17T00:03:41;101767.78;;;6.15;64.31
83563;BME280;73535;52.500;13.482;2024-03-17T00:06:07;101772.97;;;6.17;64.62
83563;BME280;73535;52.500;13.482;2024-03-17T00:08:33;101781.75;;;6.14;64.51
83563;BME280;73535;52.500;13.482;2024-03-17T00:10:58;101777.50;;;6.12;64.50
83563;BME280;73535;52.500;13.482;2024-03-17T00:13:24;101772.41;;;6.07;65.10
83563;BME280;73535;52.500;13.482;2024-03-17T00:15:50;101781.00;;;6.11;65.30
83563;BME280;73535;52.500;13.482;2024-03-17T00:18:16;101784.47;;;6.11;64.99
83563;BME280;73535;52.500;13.482;2024-03-17T00:20:41;101775.88;;;6.08;65.35
83563;BME280;73535;52.500;13.482;2024-03-17T00:23:06;101770.63;;;6.09;65.26
83563;BME280;73535;52.500;13.482;2024-03-17T00:25:33;101773.22;;;6.09;65.44
83563;BME280;73535;52.500;13.482;2024-03-17T00:28:02;101773.25;;;6.08;65.68
83563;BME280;73535;52.500;13.482;2024-03-17T00:30:27;101769.91;;;6.04;65.42
83563;BME280;73535;52.500;13.482;2024-03-17T00:32:53;101770.84;;;6.02;65.83
83563;BME280;73535;52.500;13.482;2024-03-17T00:35:18;101770.91;;;6.00;65.71
83563;BME280;73535;52.500;13.482;2024-03-17T00:37:49;101786.59;;;6.00;65.41
83563;BME280;73535;52.500;13.482;2024-03-17T00:40:18;101784.88;;;5.99;65.45
83563;BME280;73535;52.500;13.482;2024-03-17T00:42:43;101783.97;;;6.00;65.26
83563;BME280;73535;52.500;13.482;2024-03-17T00:45:10;101784.06;;;5.97;65.56
83563;BME280;73535;52.500;13.482;2024-03-17T00:47:36;101785.94;;;5.92;65.55
83563;BME280;73535;52.500;13.482;2024-03-17T00:50:02;101791.06;;;5.95;65.49
83563;BME280;73535;52.500;13.482;2024-03-17T00:52:29;101782.34;;;5.96;65.51
83563;BME280;73535;52.500;13.482;2024-03-17T00:54:54;101781.56;;;5.94;65.94
83563;BME280;73535;52.500;13.482;2024-03-17T00:57:19;101787.66;;;5.93;66.03
83563;BME280;73535;52.500;13.482;2024-03-17T00:59:44;101779.06;;;5.91;66.05
83563;BME280;73535;52.500;13.482;2024-03-17T01:02:16;101772.13;;;5.90;66.00
83563;BME280;73535;52.500;13.482;2024-03-17T01:04:44;101792.22;;;5.87;65.98
83563;BME280;73535;52.500;13.482;2024-03-17T01:07:10;101793.16;;;5.86;66.03
83563;BME280;73535;52.500;13.482;2024-03-17T01:09:36;101789.69;;;5.85;65.99
83563;BME280;73535;52.500;13.482;2024-03-17T01:12:02;101801.91;;;5.83;66.00
83563;BME280;73535;52.500;13.482;2024-03-17T01:14:28;101797.66;;;5.79;65.89
83563;BME280;73535;52.500;13.482;2024-03-17T01:16:53;101798.53;;;5.80;65.84
83563;BME280;73535;52.500;13.482;2024-03-17T01:19:18;101790.81;;;5.75;65.69
83563;BME280;73535;52.500;13.482;2024-03-17T01:21:43;101794.34;;;5.74;66.13
83563;BME280;73535;52.500;13.482;2024-03-17T01:24:09;101794.38;;;5.72;65.76
83563;BME280;73535;52.500;13.482;2024-03-17T01:26:34;101791.78;;;5.72;66.01
83563;BME280;73535;52.500;13.482;2024-03-17T01:29:00;101791.84;;;5.71;66.29
83563;BME280;73535;52.500;13.482;2024-03-17T01:31:26;101792.72;;;5.72;66.48
83563;BME280;73535;52.500;13.482;2024-03-17T01:33:52;101799.69;;;5.69;66.42
83563;BME280;73535;52.500;13.482;2024-03-17T01:36:17;101794.47;;;5.69;66.62
83563;BME280;73535;52.500;13.482;2024-03-17T01:38:42;101799.69;;;5.69;66.97
83563;BME280;73535;52.500;13.482;2024-03-17T01:41:07;101785.81;;;5.69;66.91
83563;BME280;73535;52.500;13.482;2024-03-17T01:43:32;101798.00;;;5.68;67.23
83563;BME280;73535;52.500;13.482;2024-03-17T01:45:59;101779.78;;;5.67;67.03
83563;BME280;73535;52.500;13.482;2024-03-17T01:48:25;101781.59;;;5.65;67.35
83563;BME280;73535;52.500;13.482;2024-03-17T01:50:53;101785.19;;;5.61;66.93
83563;BME280;73535;52.500;13.482;2024-03-17T01:53:20;101783.59;;;5.57;67.08
83563;BME280;73535;52.500;13.482;2024-03-17T01:55:47;101785.19;;;5.61;67.56
83563;BME280;73535;52.500;13.482;2024-03-17T01:58:12;101785.28;;;5.58;67.54
83563;BME280;73535;52.500;13.482;2024-03-17T02:00:39;101784.50;;;5.56;67.49
83563;BME280;73535;52.500;13.482;2024-03-17T02:03:07;101787.09;;;5.56;67.47
83563;BME280;73535;52.500;13.482;2024-03-17T02:05:34;101784.53;;;5.54;67.69
83563;BME280;73535;52.500;13.482;2024-03-17T02:07:59;101783.78;;;5.51;67.79
83563;BME280;73535;52.500;13.482;2024-03-17T02:10:25;101789.09;;;5.48;67.80
83563;BME280;73535;52.500;13.482;2024-03-17T02:12:50;101784.84;;;5.45;67.99
83563;BME280;73535;52.500;13.482;2024-03-17T02:15:16;101794.41;;;5.45;67.99
83563;BME280;73535;52.500;13.482;2024-03-17T02:17:41;101792.69;;;5.44;68.27
83563;BME280;73535;52.500;13.482;2024-03-17T02:20:06;101795.38;;;5.41;68.07
83563;BME280;73535;52.500;13.482;2024-03-17T02:22:37;101802.41;;;5.39;68.23
83563;BME280;73535;52.500;13.482;2024-03-17T02:25:02;101796.50;;;5.34;68.19
83563;BME280;73535;52.500;13.482;2024-03-17T02:27:28;101786.84;;;5.36;68.17
83563;BME280;73535;52.500;13.482;2024-03-17T02:29:54;101787.75;;;5.35;68.21
83563;BME280;73535;52.500;13.482;2024-03-17T02:32:19;101790.34;;;5.35;68.41
83563;BME280;73535;52.500;13.482;2024-03-17T02:34:47;101785.22;;;5.32;68.38
83563;BME280;73535;52.500;13.482;2024-03-17T02:37:12;101786.16;;;5.31;68.48
83563;BME280;73535;52.500;13.482;2024-03-17T02:39:38;101794.25;;;5.22;68.86
83563;BME280;73535;52.500;13.482;2024-03-17T02:42:05;101788.09;;;5.23;68.83
83563;BME280;73535;52.500;13.482;2024-03-17T02:44:31;101791.72;;;5.19;69.21
83563;BME280;73535;52.500;13.482;2024-03-17T02:47:00;101789.06;;;5.20;68.94
83563;BME280;73535;52.500;13.482;2024-03-17T02:49:26;101800.31;;;5.22;69.25
83563;BME280;73535;52.500;13.482;2024-03-17T02:51:55;101791.81;;;5.16;69.33
83563;BME280;73535;52.500;13.482;2024-03-17T02:54:21;101797.03;;;5.16;69.36
83563;BME280;73535;52.500;13.482;2024-03-17T02:56:46;101788.41;;;5.13;69.42
83563;BME280;73535;52.500;13.482;2024-03-17T02:59:12;101788.41;;;5.13;69.70
83563;BME280;73535;52.500;13.482;2024-03-17T03:01:37;101783.38;;;5.07;69.42
83563;BME280;73535;52.500;13.482;2024-03-17T03:04:02;101788.59;;;5.06;69.82
83563;BME280;73535;52.500;13.482;2024-03-17T03:06:27;101789.47;;;5.06;69.73
83563;BME280;73535;52.500;13.482;2024-03-17T03:08:53;101789.47;;;5.06;70.22
83563;BME280;73535;52.500;13.482;2024-03-17T03:11:18;101788.66;;;5.04;70.17
83563;BME280;73535;52.500;13.482;2024-03-17T03:13:44;101803.47;;;5.02;69.81
83563;BME280;73535;52.500;13.482;2024-03-17T03:16:10;101788.78;;;5.00;70.23
83563;BME280;73535;52.500;13.482;2024-03-17T03:18:39;101787.94;;;4.99;70.55
83563;BME280;73535;52.500;13.482;2024-03-17T03:21:05;101788.00;;;4.96;70.44
83563;BME280;73535;52.500;13.482;2024-03-17T03:23:31;101792.34;;;4.97;70.49
83563;BME280;73535;52.500;13.482;2024-03-17T03:25:57;101803.94;;;4.87;70.66
83563;BME280;73535;52.500;13.482;2024-03-17T03:28:23;101793.50;;;4.87;70.81
83563;BME280;73535;52.500;13.482;2024-03-17T03:30:49;101798.66;;;4.89;70.78
83563;BME280;73535;52.500;13.482;2024-03-17T03:33:14;101799.69;;;4.83;70.70
83563;BME280;73535;52.500;13.482;2024-03-17T03:35:39;101796.19;;;4.84;71.03
83563;BME280;73535;52.500;13.482;2024-03-17T03:38:04;101811.84;;;4.83;71.22
83563;BME280;73535;52.500;13.482;2024-03-17T03:40:30;101802.31;;;4.82;70.78
83563;BME280;73535;52.500;13.482;2024-03-17T03:42:55;101803.25;;;4.79;70.74
83563;BME280;73535;52.500;13.482;2024-03-17T03:45:21;101801.50;;;4.81;71.02
83563;BME280;73535;52.500;13.482;2024-03-17T03:47:46;101804.19;;;4.78;70.97
83563;BME280;73535;52.500;13.482;2024-03-17T03:50:15;101805.16;;;4.74;70.75
83563;BME280;73535;52.500;13.482;2024-03-17T03:52:40;101816.44;;;4.73;70.94
83563;BME280;73535;52.500;13.482;2024-03-17T03:55:07;101802.69;;;4.70;70.86
83563;BME280;73535;52.500;13.482;2024-03-17T03:57:35;101816.63;;;4.67;70.68
83563;BME280;73535;52.500;13.482;2024-03-17T04:00:00;101809.66;;;4.68;70.79
83563;BME280;73535;52.500;13.482;2024-03-17T04:02:26;101819.31;;;4.64;70.84
83563;BME280;73535;52.500;13.482;2024-03-17T04:04:56;101812.41;;;4.63;70.81
83563;BME280;73535;52.500;13.482;2024-03-17T04:07:22;101810.69;;;4.62;71.01
83563;BME280;73535;52.500;13.482;2024-03-17T04:09:47;101811.50;;;4.64;71.04
83563;BME280;73535;52.500;13.482;2024-03-17T04:12:12;101810.59;;;4.65;71.33
83563;BME280;73535;52.500;13.482;2024-03-17T04:14:37;101808.00;;;4.65;71.68
83563;BME280;73535;52.500;13.482;2024-03-17T04:17:03;101808.06;;;4.64;71.36
83563;BME280;73535;52.500;13.482;2024-03-17T04:19:28;101811.53;;;4.63;71.47
83563;BME280;73535;52.500;13.482;2024-03-17T04:21:54;101815.94;;;4.61;71.65
83563;BME280;73535;52.500;13.482;2024-03-17T04:24:19;101815.94;;;4.61;72.02
83563;BME280;73535;52.500;13.482;2024-03-17T04:26:44;101813.41;;;4.57;71.63
83563;BME280;73535;52.500;13.482;2024-03-17T04:29:10;101818.78;;;4.51;71.80
83563;BME280;73535;52.500;13.482;2024-03-17T04:31:35;101816.97;;;4.53;72.20
83563;BME280;73535;52.500;13.482;2024-03-17T04:34:00;101810.91;;;4.53;72.23
83563;BME280;73535;52.500;13.482;2024-03-17T04:36:26;101816.97;;;4.53;72.71
83563;BME280;73535;52.500;13.482;2024-03-17T04:38:51;101818.72;;;4.53;73.15
83563;BME280;73535;52.500;13.482;2024-03-17T04:41:17;101824.88;;;4.50;73.42
83563;BME280;73535;52.500;13.482;2024-03-17T04:43:42;101830.16;;;4.47;73.42
83563;BME280;73535;52.500;13.482;2024-03-17T04:46:07;101816.25;;;4.48;73.17
83563;BME280;73535;52.500;13.482;2024-03-17T04:48:36;101830.22;;;4.44;73.25
83563;BME280;73535;52.500;13.482;2024-03-17T04:51:01;101827.75;;;4.40;73.29
83563;BME280;73535;52.500;13.482;2024-03-17T04:53:27;101838.09;;;4.43;73.51
83563;BME280;73535;52.500;13.482;2024-03-17T04:56:02;101834.69;;;4.41;73.67
83563;BME280;73535;52.500;13.482;2024-03-17T04:58:29;101845.19;;;4.36;73.69
83563;BME280;73535;52.500;13.482;2024-03-17T05:00:54;101845.56;;;4.23;74.01
83563;BME280;73535;52.500;13.482;2024-03-17T05:03:20;101840.19;;;4.29;74.08
83563;BME280;73535;52.500;13.482;2024-03-17T05:05:45;101849.63;;;4.33;73.90
83563;BME280;73535;52.500;13.482;2024-03-17T05:08:10;101841.88;;;4.31;73.74
83563;BME280;73535;52.500;13.482;2024-03-17T05:10:36;101839.28;;;4.30;73.95
83563;BME280;73535;52.500;13.482;2024-03-17T05:13:01;101838.44;;;4.29;73.56
83563;BME280;73535;52.500;13.482;2024-03-17T05:15:27;101836.72;;;4.28;73.59
83563;BME280;73535;52.500;13.482;2024-03-17T05:17:53;101840.28;;;4.26;73.20
83563;BME280;73535;52.500;13.482;2024-03-17T05:20:18;101835.28;;;4.17;73.07
83563;BME280;73535;52.500;13.482;2024-03-17T05:22:44;101837.81;;;4.20;73.22
83563;BME280;73535;52.500;13.482;2024-03-17T05:25:11;101830.97;;;4.16;73.14
83563;BME280;73535;52.500;13.482;2024-03-17T05:27:38;101843.09;;;4.17;73.16
83563;BME280;73535;52.500;13.482;2024-03-17T05:30:03;101844.75;;;4.21;73.05
83563;BME280;73535;52.500;13.482;2024-03-17T05:32:29;101844.75;;;4.21;73.11
83563;BME280;73535;52.500;13.482;2024-03-17T05:34:54;101853.34;;;4.23;73.21
83563;BME280;73535;52.500;13.482;2024-03-17T05:37:20;101858.56;;;4.23;73.33
83563;BME280;73535;52.500;13.482;2024-03-17T05:39:45;101864.56;;;4.25;73.21
83563;BME280;73535;52.500;13.482;2024-03-17T05:42:11;101853.34;;;4.23;73.36
83563;BME280;73535;52.500;13.482;2024-03-17T05:44:36;101857.66;;;4.24;73.42
83563;BME280;73535;52.500;13.482;2024-03-17T05:47:18;101856.75;;;4.25;73.06
83563;BME280;73535;52.500;13.482;2024-03-17T05:49:44;101854.97;;;4.27;72.80
83563;BME280;73535;52.500;13.482;2024-03-17T05:52:09;101853.22;;;4.29;72.52
83563;BME280;73535;52.500;13.482;2024-03-17T05:54:35;101868.09;;;4.22;72.57
83563;BME280;73535;52.500;13.482;2024-03-17T05:57:00;101859.41;;;4.23;72.75
83563;BME280;73535;52.500;13.482;2024-03-17T05:59:29;101868.81;;;4.29;72.34
83563;BME280;73535;52.500;13.482;2024-03-17T06:01:54;101874.81;;;4.32;71.87
83563;BME280;73535;52.500;13.482;2024-03-17T06:04:19;101879.91;;;4.35;72.21
83563;BME280;73535;52.500;13.482;2024-03-17T06:06:44;101881.63;;;4.38;72.24
83563;BME280;73535;52.500;13.482;2024-03-17T06:09:10;101885.03;;;4.40;72.16
83563;BME280;73535;52.500;13.482;2024-03-17T06:11:36;101882.50;;;4.37;72.48
83563;BME280;73535;52.500;13.482;2024-03-17T06:14:01;101887.69;;;4.37;72.49
83563;BME280;73535;52.500;13.482;2024-03-17T06:16:29;101895.34;;;4.43;72.50
83563;BME280;73535;52.500;13.482;2024-03-17T06:18:55;101888.56;;;4.37;72.80
83563;BME280;73535;52.500;13.482;2024-03-17T06:21:21;101896.31;;;4.39;73.10
83563;BME280;73535;52.500;13.482;2024-03-17T06:23:46;101893.84;;;4.34;73.10
83563;BME280;73535;52.500;13.482;2024-03-17T06:26:12;101885.81;;;4.42;72.74
83563;BME280;73535;52.500;13.482;2024-03-17T06:28:37;101901.38;;;4.45;72.77
83563;BME280;73535;52.500;13.482;2024-03-17T06:31:03;101897.75;;;4.50;72.50
83563;BME280;73535;52.500;13.482;2024-03-17T06:33:32;101904.63;;;4.53;72.22
83563;BME280;73535;52.500;13.482;2024-03-17T06:35:57;101905.47;;;4.55;72.58
83563;BME280;73535;52.500;13.482;2024-03-17T06:38:23;101904.63;;;4.53;72.17
83563;BME280;73535;52.500;13.482;2024-03-17T06:40:49;101914.22;;;4.52;72.38
83563;BME280;73535;52.500;13.482;2024-03-17T06:43:15;101902.78;;;4.58;72.14
83563;BME280;73535;52.500;13.482;2024-03-17T06:45:40;101907.94;;;4.60;71.97
83563;BME280;73535;52.500;13.482;2024-03-17T06:48:06;101918.22;;;4.66;72.10
83563;BME280;73535;52.500;13.482;2024-03-17T06:50:32;101918.28;;;4.63;71.91
83563;BME280;73535;52.500;13.482;2024-03-17T06:52:57;101922.56;;;4.65;71.52
83563;BME280;73535;52.500;13.482;2024-03-17T06:55:22;101923.22;;;4.73;71.54
83563;BME280;73535;52.500;13.482;2024-03-17T06:57:47;101928.19;;;4.82;71.53
83563;BME280;73535;52.500;13.482;2024-03-17T07:00:14;101928.25;;;4.79;71.00
83563;BME280;73535;52.500;13.482;2024-03-17T07:02:43;101931.69;;;4.81;70.72
83563;BME280;73535;52.500;13.482;2024-03-17T07:05:13;101934.25;;;4.83;70.53
83563;BME280;73535;52.500;13.482;2024-03-17T07:07:44;101935.03;;;4.86;70.11
83563;BME280;73535;52.500;13.482;2024-03-17T07:10:10;101940.13;;;4.91;69.80
83563;BME280;73535;52.500;13.482;2024-03-17T07:12:41;101940.94;;;4.93;69.62
83563;BME280;73535;52.500;13.482;2024-03-17T07:15:07;101953.75;;;5.00;69.66
83563;BME280;73535;52.500;13.482;2024-03-17T07:17:33;101944.91;;;5.07;69.58
83563;BME280;73535;52.500;13.482;2024-03-17T07:19:58;101943.09;;;5.09;69.30
83563;BME280;73535;52.500;13.482;2024-03-17T07:22:23;101946.34;;;5.18;68.91
83563;BME280;73535;52.500;13.482;2024-03-17T07:24:51;101955.88;;;5.19;68.70
83563;BME280;73535;52.500;13.482;2024-03-17T07:27:20;101948.84;;;5.22;68.38
83563;BME280;73535;52.500;13.482;2024-03-17T07:29:45;101962.53;;;5.30;68.35
83563;BME280;73535;52.500;13.482;2024-03-17T07:32:11;101954.56;;;5.35;68.15
83563;BME280;73535;52.500;13.482;2024-03-17T07:34:36;101957.88;;;5.41;67.49
83563;BME280;73535;52.500;13.482;2024-03-17T07:37:02;101959.50;;;5.45;67.84
83563;BME280;73535;52.500;13.482;2024-03-17T07:39:29;101964.56;;;5.51;67.53
83563;BME280;73535;52.500;13.482;2024-03-17T07:42:00;101967.28;;;5.47;66.81
83563;BME280;73535;52.500;13.482;2024-03-17T07:44:27;101961.81;;;5.54;67.07
83563;BME280;73535;52.500;13.482;2024-03-17T07:46:54;101969.72;;;5.53;66.94
83563;BME280;73535;52.500;13.482;2024-03-17T07:49:19;101979.53;;;5.43;66.27
83563;BME280;73535;52.500;13.482;2024-03-17T07:51:44;101978.34;;;5.55;66.45
83563;BME280;73535;52.500;13.482;2024-03-17T07:54:09;101981.03;;;5.52;66.97
83563;BME280;73535;52.500;13.482;2024-03-17T07:56:35;101974.53;;;5.66;66.52
83563;BME280;73535;52.500;13.482;2024-03-17T07:59:00;101975.44;;;5.65;67.02
83563;BME280;73535;52.500;13.482;2024-03-17T08:01:25;101977.66;;;5.79;65.82
83563;BME280;73535;52.500;13.482;2024-03-17T08:03:50;101982.19;;;5.72;65.58
83563;BME280;73535;52.500;13.482;2024-03-17T08:06:20;101976.06;;;5.74;65.41
83563;BME280;73535;52.500;13.482;2024-03-17T08:08:46;101976.69;;;5.83;65.61
83563;BME280;73535;52.500;13.482;2024-03-17T08:11:11;101973.09;;;5.87;64.45
83563;BME280;73535;52.500;13.482;2024-03-17T08:13:36;101978.28;;;5.89;63.82
83563;BME280;73535;52.500;13.482;2024-03-17T08:16:04;101968.50;;;5.95;64.23
83563;BME280;73535;52.500;13.482;2024-03-17T08:18:31;101972.28;;;5.85;63.74
83563;BME280;73535;52.500;13.482;2024-03-17T08:20:56;101973.78;;;5.94;63.62
83563;BME280;73535;52.500;13.482;2024-03-17T08:23:22;101973.53;;;6.01;63.91
83563;BME280;73535;52.500;13.482;2024-03-17T08:25:56;101972.66;;;6.02;63.84
83563;BME280;73535;52.500;13.482;2024-03-17T08:28:22;101964.81;;;6.02;63.44
83563;BME280;73535;52.500;13.482;2024-03-17T08:30:54;101970.91;;;6.01;63.93
83563;BME280;73535;52.500;13.482;2024-03-17T08:33:20;101963.75;;;6.09;63.73
83563;BME280;73535;52.500;13.482;2024-03-17T08:36:05;101957.06;;;6.27;63.38
83563;BME280;73535;52.500;13.482;2024-03-17T08:38:32;101960.81;;;6.18;63.08
83563;BME280;73535;52.500;13.482;2024-03-17T08:41:05;101970.19;;;6.25;63.27
83563;BME280;73535;52.500;13.482;2024-03-17T08:43:31;101951.63;;;6.35;62.85
83563;BME280;73535;52.500;13.482;2024-03-17T08:46:05;101962.25;;;6.29;63.02
83563;BME280;73535;52.500;13.482;2024-03-17T08:48:32;101969.38;;;6.23;63.25
83563;BME280;73535;52.500;13.482;2024-03-17T08:50:59;101964.50;;;6.41;63.20
83563;BME280;73535;52.500;13.482;2024-03-17T08:53:25;101965.94;;;6.21;62.35
83563;BME280;73535;52.500;13.482;2024-03-17T08:55:50;101963.06;;;6.31;61.68
83563;BME280;73535;52.500;13.482;2024-03-17T08:58:16;101979.44;;;6.36;60.96
83563;BME280;73535;52.500;13.482;2024-03-17T09:00:41;101972.72;;;6.27;61.00
83563;BME280;73535;52.500;13.482;2024-03-17T09:03:07;101982.16;;;6.33;60.85
83563;BME280;73535;52.500;13.482;2024-03-17T09:05:37;101981.34;;;6.31;61.09
83563;BME280;73535;52.500;13.482;2024-03-17T09:08:03;101989.94;;;6.34;60.64
83563;BME280;73535;52.500;13.482;2024-03-17T09:10:28;101988.56;;;6.22;60.12
83563;BME280;73535;52.500;13.482;2024-03-17T09:12:54;101980.38;;;6.33;60.30
83563;BME280;73535;52.500;13.482;2024-03-17T09:15:19;101969.75;;;6.39;60.10
83563;BME280;73535;52.500;13.482;2024-03-17T09:17:45;101979.34;;;6.39;60.61
83563;BME280;73535;52.500;13.482;2024-03-17T09:20:11;101983.75;;;6.37;59.73
83563;BME280;73535;52.500;13.482;2024-03-17T09:22:37;101983.66;;;6.40;60.07
83563;BME280;73535;52.500;13.482;2024-03-17T09:25:05;101978.34;;;6.43;60.11
83563;BME280;73535;52.500;13.482;2024-03-17T09:27:32;101975.09;;;6.62;59.79
83563;BME280;73535;52.500;13.482;2024-03-17T09:29:57;101977.34;;;6.47;59.79
83563;BME280;73535;52.500;13.482;2024-03-17T09:32:24;101974.31;;;6.59;59.73
83563;BME280;73535;52.500;13.482;2024-03-17T09:34:49;101972.44;;;6.64;59.49
83563;BME280;73535;52.500;13.482;2024-03-17T09:37:15;101973.06;;;6.70;58.94
83563;BME280;73535;52.500;13.482;2024-03-17T09:39:41;101975.38;;;6.79;59.46
83563;BME280;73535;52.500;13.482;2024-03-17T09:42:18;101981.34;;;6.85;58.54
83563;BME280;73535;52.500;13.482;2024-03-17T09:44:48;101980.47;;;6.84;58.61
83563;BME280;73535;52.500;13.482;2024-03-17T09:47:20;101978.88;;;6.80;58.71
83563;BME280;73535;52.500;13.482;2024-03-17T09:49:47;101981.28;;;6.86;59.06
83563;BME280;73535;52.500;13.482;2024-03-17T09:52:19;101989.72;;;6.68;58.98
83563;BME280;73535;52.500;13.482;2024-03-17T09:54:44;101978.25;;;6.72;58.96
83563;BME280;73535;52.500;13.482;2024-03-17T09:57:16;101986.00;;;6.75;58.31
83563;BME280;73535;52.500;13.482;2024-03-17T09:59:41;101976.41;;;6.75;56.99
83563;BME280;73535;52.500;13.482;2024-03-17T10:02:16;101977.66;;;6.90;57.11
83563;BME280;73535;52.500;13.482;2024-03-17T10:04:43;101973.06;;;6.97;56.91
83563;BME280;73535;52.500;13.482;2024-03-17T10:07:08;101968.38;;;7.06;57.11
83563;BME280;73535;52.500;13.482;2024-03-17T10:09:33;101961.03;;;7.17;57.01
83563;BME280;73535;52.500;13.482;2024-03-17T10:11:59;101961.94;;;7.16;56.33
83563;BME280;73535;52.500;13.482;2024-03-17T10:14:24;101959.81;;;7.27;56.11
83563;BME280;73535;52.500;13.482;2024-03-17T10:16:49;101965.41;;;7.17;56.57
83563;BME280;73535;52.500;13.482;2024-03-17T10:19:23;101963.06;;;7.34;56.78
83563;BME280;73535;52.500;13.482;2024-03-17T10:21:48;101962.00;;;7.39;56.05
83563;BME280;73535;52.500;13.482;2024-03-17T10:26:56;101960.63;;;7.53;56.05
83563;BME280;73535;52.500;13.482;2024-03-17T10:29:30;101965.88;;;7.53;56.23
83563;BME280;73535;52.500;13.482;2024-03-17T10:31:56;101956.78;;;7.63;56.25
83563;BME280;73535;52.500;13.482;2024-03-17T10:34:22;101958.47;;;7.64;55.38
83563;BME280;73535;52.500;13.482;2024-03-17T10:37:07;101975.44;;;7.54;55.36
83563;BME280;73535;52.500;13.482;2024-03-17T10:39:36;101973.13;;;7.45;55.56
83563;BME280;73535;52.500;13.482;2024-03-17T10:42:04;101968.16;;;7.62;55.58
83563;BME280;73535;52.500;13.482;2024-03-17T10:44:30;101964.97;;;7.54;55.04
83563;BME280;73535;52.500;13.482;2024-03-17T10:46:57;101962.28;;;7.55;55.44
83563;BME280;73535;52.500;13.482;2024-03-17T10:49:27;101965.28;;;7.45;55.49
83563;BME280;73535;52.500;13.482;2024-03-17T10:51:57;101973.81;;;7.50;54.84
83563;BME280;73535;52.500;13.482;2024-03-17T10:54:26;101957.47;;;7.68;54.22
83563;BME280;73535;52.500;13.482;2024-03-17T10:56:56;101964.56;;;7.87;53.77
83563;BME280;73535;52.500;13.482;2024-03-17T10:59:36;101970.03;;;7.81;53.03
83563;BME280;73535;52.500;13.482;2024-03-17T11:02:06;101964.75;;;7.83;53.67
83563;BME280;73535;52.500;13.482;2024-03-17T11:04:38;101971.31;;;7.70;54.05
83563;BME280;73535;52.500;13.482;2024-03-17T11:07:03;101980.78;;;7.74;54.42
83563;BME280;73535;52.500;13.482;2024-03-17T11:09:29;101968.25;;;7.59;53.45
83563;BME280;73535;52.500;13.482;2024-03-17T11:11:54;101970.19;;;7.54;53.24
83563;BME280;73535;52.500;13.482;2024-03-17T11:14:19;101976.06;;;7.60;52.37
83563;BME280;73535;52.500;13.482;2024-03-17T11:16:45;101972.19;;;7.70;52.66
83563;BME280;73535;52.500;13.482;2024-03-17T11:19:15;101981.28;;;7.60;52.41
83563;BME280;73535;52.500;13.482;2024-03-17T11:21:41;101974.34;;;7.59;52.37
83563;BME280;73535;52.500;13.482;2024-03-17T11:24:18;101966.50;;;7.59;52.76
83563;BME280;73535;52.500;13.482;2024-03-17T11:26:44;101967.47;;;7.57;52.60
83563;BME280;73535;52.500;13.482;2024-03-17T11:29:26;101964.84;;;7.57;51.51
83563;BME280;73535;52.500;13.482;2024-03-17T11:31:51;101957.78;;;7.59;51.26
83563;BME280;73535;52.500;13.482;2024-03-17T11:34:30;101957.47;;;7.68;50.98
83563;BME280;73535;52.500;13.482;2024-03-17T11:36:57;101952.63;;;7.80;50.57
83563;BME280;73535;52.500;13.482;2024-03-17T11:42:12;101948.28;;;8.03;50.45
83563;BME280;73535;52.500;13.482;2024-03-17T11:44:42;101950.47;;;8.13;50.44
83563;BME280;73535;52.500;13.482;2024-03-17T11:47:07;101946.81;;;8.17;50.66
83563;BME280;73535;52.500;13.482;2024-03-17T11:49:34;101950.09;;;8.22;50.05
83563;BME280;73535;52.500;13.482;2024-03-17T11:52:03;101944.88;;;8.22;49.99
83563;BME280;73535;52.500;13.482;2024-03-17T11:54:31;101949.78;;;8.31;49.48
83563;BME280;73535;52.500;13.482;2024-03-17T11:57:04;101949.59;;;8.36;48.47
83563;BME280;73535;52.500;13.482;2024-03-17T11:59:31;101945.16;;;8.38;48.50
83563;BME280;73535;52.500;13.482;2024-03-17T12:01:57;101955.44;;;8.42;48.58
83563;BME280;73535;52.500;13.482;2024-03-17T12:04:23;101962.63;;;8.59;49.10
83563;BME280;73535;52.500;13.482;2024-03-17T12:06:51;101956.88;;;8.71;48.79
83563;BME280;73535;52.500;13.482;2024-03-17T12:09:24;101950.84;;;8.69;48.85
83563;BME280;73535;52.500;13.482;2024-03-17T12:11:51;101944.72;;;8.70;48.68
83563;BME280;73535;52.500;13.482;2024-03-17T12:14:18;101936.91;;;8.69;48.42
83563;BME280;73535;52.500;13.482;2024-03-17T12:17:08;101940.50;;;8.66;48.50
83563;BME280;73535;52.500;13.482;2024-03-17T12:19:35;101932.66;;;8.86;48.38
83563;BME280;73535;52.500;13.482;2024-03-17T12:22:01;101933.50;;;8.87;47.69
83563;BME280;73535;52.500;13.482;2024-03-17T12:24:34;101931.66;;;8.89;47.50
83563;BME280;73535;52.500;13.482;2024-03-17T12:27:01;101931.28;;;8.98;48.17
83563;BME280;73535;52.500;13.482;2024-03-17T12:29:34;101933.00;;;8.99;47.25
83563;BME280;73535;52.500;13.482;2024-03-17T12:32:03;101928.91;;;9.12;47.02
83563;BME280;73535;52.500;13.482;2024-03-17T12:34:31;101924.91;;;9.24;46.93
83563;BME280;73535;52.500;13.482;2024-03-17T12:36:58;101921.28;;;9.26;47.32
83563;BME280;73535;52.500;13.482;2024-03-17T12:39:29;101909.28;;;9.21;46.27
83563;BME280;73535;52.500;13.482;2024-03-17T12:42:04;101903.47;;;9.34;46.07
83563;BME280;73535;52.500;13.482;2024-03-17T12:44:38;101911.44;;;9.51;46.53
83563;BME280;73535;52.500;13.482;2024-03-17T12:47:08;101904.94;;;9.40;46.05
83563;BME280;73535;52.500;13.482;2024-03-17T12:49:45;101903.31;;;9.17;46.57
83563;BME280;73535;52.500;13.482;2024-03-17T12:52:17;101903.97;;;9.42;46.33
83563;BME280;73535;52.500;13.482;2024-03-17T12:54:42;101908.53;;;9.57;45.90